Latest Coastal Weather Observations for Kowanyama

IDQ60701

Issued at 10:12 pm EST Tuesday 1 September 2015 (issued every 10 minutes, with the page automatically refreshed every 10 minutes)

About coastal observations | Map of coastal stations | Coastal observations for QLD | Marine services | Other Formats
Station Details ID: 029038 Name: KOWANYAMA AIRPORT Lat: -15.48 Lon: 141.75 Height: 9.6 m
Data from the previous 72 hours. | See also: Recent months at Kowanyama
Date/Time
EST
Temp

°C
Wind Pressure Rain
since 9am
mm
Weather Cloud Vis
km
Sea
Height
m
Swell
Dir
 
Speed
knots
Gust
knots
hPa Trend Height
m
Period
s
Dir
01/10:00pm 22.6 NE 7 11 1013.8 - 0.0 - Partly cloudy - - - - -
01/09:30pm 22.6 CALM 0 0 1013.3 - 0.0 - - - - - - -
01/09:00pm 23.5 CALM 0 3 1012.7 - 0.0 - - - - - - -
01/08:30pm 24.1 WNW 3 5 1012.5 - 0.0 - - - - - - -
01/08:00pm 24.2 W 5 6 1012.1 - 0.0 - - - - - - -
01/07:30pm 24.8 W 5 7 1011.6 - 0.0 - - - - - - -
01/07:00pm 25.3 W 6 8 1011.1 - 0.0 - - - - - - -
01/06:30pm 26.4 WNW 8 11 1010.9 - 0.0 - - - - - - -
01/06:00pm 27.9 WNW 9 12 1010.6 - 0.0 - - - - - - -
01/05:30pm 28.9 WNW 12 15 1010.6 - 0.0 - - - - - - -
01/05:00pm 30.2 WNW 13 16 1010.4 - 0.0 - - - - - - -
01/04:30pm 31.0 WNW 13 17 1010.2 - 0.0 - - - - - - -
01/04:00pm 32.0 WNW 14 17 1010.3 - 0.0 - - - - - - -
01/03:30pm 33.0 W 13 18 1010.3 - 0.0 - - - - - - -
01/03:00pm 33.3 WNW 13 18 1010.6 - 0.0 - Mostly clear - - - - -
01/02:30pm 33.6 WNW 9 16 1011.1 - 0.0 - Partly cloudy - - - - -
01/02:00pm 34.4 SE 4 8 1011.6 - 0.0 - Partly cloudy - - - - -
01/01:30pm 34.3 N 5 7 1012.2 - 0.0 - Partly cloudy - - - - -
01/01:00pm 33.7 NW 5 9 1012.7 - 0.0 - - - - - - -
01/12:30pm 32.8 NNE 5 8 1013.4 - 0.0 - - - - - - -
01/12:00pm 32.1 NE 5 7 1014.0 - 0.0 - - - - - - -
01/11:30am 31.6 NE 5 9 1014.7 - 0.0 - - - - - - -
01/11:00am 29.9 NE 5 12 1015.3 - 0.0 - - - - - - -
01/10:30am 29.2 NNE 7 11 1015.7 - 0.0 - - - - - - -
01/10:00am 28.5 NNE 7 11 1015.9 - 0.0 - - - - - - -
01/09:30am 27.3 N 7 11 1016.1 - 0.0 - - - - - - -
01/09:00am 25.6 NNE 8 15 1015.9 - 0.0 - Mostly clear - - - - -
01/08:30am 24.2 N 7 11 1015.6 - 0.0 - - - - - - -
01/08:00am 21.8 NE 5 8 1015.4 - 0.0 - - - - - - -
01/07:30am 18.7 NE 4 5 1015.2 - 0.0 - - - - - - -
01/07:00am 16.1 NE 4 5 1014.9 - 0.0 - - - - - - -
01/06:30am 15.8 NE 3 4 1014.5 - 0.0 - - - - - - -
01/06:00am 16.3 NE 4 5 1014.1 - 0.0 - - - - - - -
01/05:30am 15.9 NE 1 3 1013.8 - 0.0 - - - - - - -
01/05:00am 16.3 CALM 0 0 1013.6 - 0.0 - - - - - - -
01/04:30am 16.6 CALM 0 0 1013.6 - 0.0 - - - - - - -
01/04:00am 17.0 NE 3 5 1013.5 - 0.0 - - - - - - -
01/03:30am 17.6 CALM 0 0 1013.6 - 0.0 - - - - - - -
01/03:00am 18.2 CALM 0 0 1013.6 - 0.0 - - - - - - -
01/02:30am 18.8 CALM 0 0 1013.6 - 0.0 - - - - - - -
01/02:00am 19.9 NE 3 4 1013.8 - 0.0 - - - - - - -
01/01:30am 20.4 ENE 3 5 1014.0 - 0.0 - - - - - - -
01/01:00am 21.2 NE 7 11 1014.0 - 0.0 - - - - - - -
01/12:30am 19.6 S 2 8 1013.7 - 0.0 - - - - - - -
01/12:00am 21.0 SSW 2 4 1013.5 - 0.0 - - - - - - -
 
Date/Time
EST
Temp

°C
Wind Pressure Rain
since 9am
mm
Weather Cloud Vis
km
Sea
Height
m
Swell
Dir
 
Speed
knots
Gust
knots
hPa Trend Height
m
Period
s
Dir
31/11:30pm 21.0 SW 2 4 1013.5 - 0.0 - - - - - - -
31/11:00pm 21.5 CALM 0 0 1013.5 - 0.0 - - - - - - -
31/10:30pm 22.3 SW 4 5 1013.3 - 0.0 - - - - - - -
31/10:00pm 23.0 SW 4 6 1013.4 - 0.0 - - - - - - -
31/09:30pm 23.5 SSW 6 8 1013.3 - 0.0 - - - - - - -
31/09:00pm 23.8 SSW 6 9 1013.1 - 0.0 - - - - - - -
31/08:30pm 24.3 SSW 6 9 1012.9 - 0.0 - - - - - - -
31/08:00pm 24.9 SW 5 7 1012.6 - 0.0 - - - - - - -
31/07:30pm 25.7 WSW 4 5 1012.3 - 0.0 - - - - - - -
31/07:00pm 26.9 WSW 5 7 1012.0 - 0.0 - - - - - - -
31/06:30pm 28.3 WSW 8 12 1011.7 - 0.0 - - - - - - -
31/06:00pm 30.0 WSW 9 13 1011.4 - 0.0 - - - - - - -
31/05:30pm 31.4 WSW 11 15 1011.1 - 0.0 - - - - - - -
31/05:00pm 32.3 W 11 16 1011.0 - 0.0 - - - - - - -
31/04:30pm 33.6 WSW 11 16 1010.8 - 0.0 - - - - - - -
31/04:00pm 34.1 W 11 16 1010.6 - 0.0 - - - - - - -
31/03:30pm 34.4 WSW 7 17 1010.8 - 0.0 - - - - - - -
31/03:00pm 34.8 SSW 8 11 1011.2 - 0.0 - Mostly clear - - - - -
31/02:30pm 34.7 S 5 12 1011.6 - 0.0 - Partly cloudy - - - - -
31/02:00pm 34.5 NW 4 7 1012.2 - 0.0 - - - - - - -
31/01:30pm 34.9 SW 8 13 1012.7 - 0.0 - - - - - - -
31/01:00pm 34.2 S 6 9 1013.3 - 0.0 - - - - - - -
31/12:30pm 33.4 SSW 8 11 1013.7 - 0.0 - - - - - - -
31/12:00pm 33.5 SE 9 14 1014.4 - 0.0 - - - - - - -
31/11:30am 32.7 ESE 5 11 1015.0 - 0.0 - - - - - - -
31/11:00am 30.3 SSE 6 8 1015.5 - 0.0 - - - - - - -
31/10:30am 29.6 E 4 7 1015.9 - 0.0 - - - - - - -
31/10:00am 28.4 NE 3 6 1016.0 - 0.0 - - - - - - -
31/09:30am 27.1 ENE 5 8 1015.9 - 0.0 - - - - - - -
31/09:00am 25.0 NNE 5 6 1015.8 - 0.0 - - - - - - -
31/08:30am 23.6 NNE 3 5 1015.7 - 0.0 - - - - - - -
31/08:09am 21.7 NE 3 4 1015.6 - 0.0 - Partly cloudy - - - - -
31/08:00am 20.9 ENE 1 4 1015.6 - 0.0 - Partly cloudy - - - - -
31/07:30am 19.8 ENE 2 4 1015.3 - 0.0 - Cloudy - - - - -
31/07:00am 18.2 ENE 3 7 1014.9 - 0.0 - Partly cloudy - - - - -
31/06:30am 17.9 CALM 0 0 1014.4 - 0.0 - Partly cloudy - - - - -
31/06:00am 18.3 CALM 0 3 1014.1 - 0.0 - Cloudy - - - - -
31/05:34am 18.2 CALM 0 0 1013.8 - 0.0 - Partly cloudy - - - - -
31/05:30am 18.2 CALM 0 0 1013.8 - 0.0 - Partly cloudy - - - - -
31/05:00am 18.6 CALM 0 0 1013.8 - 0.0 - - - - - - -
31/04:30am 19.0 CALM 0 0 1013.8 - 0.0 - - - - - - -
31/04:00am 19.3 ENE 2 4 1013.7 - 0.0 - - - - - - -
31/03:30am 19.8 CALM 0 0 1013.9 - 0.0 - - - - - - -
31/03:00am 20.2 CALM 0 0 1014.4 - 0.0 - - - - - - -
31/02:30am 20.9 NE 4 6 1014.4 - 0.0 - - - - - - -
31/02:00am 21.4 E 7 15 1014.2 - 0.0 - - - - - - -
31/01:30am 20.9 SW 5 7 1013.9 - 0.0 - - - - - - -
31/01:00am 20.8 SW 3 4 1014.1 - 0.0 - - - - - - -
31/12:30am 21.1 CALM 0 0 1014.2 - 0.0 - - - - - - -
31/12:00am 21.4 CALM 0 0 1014.5 - 0.0 - - - - - - -
 
Date/Time
EST
Temp

°C
Wind Pressure Rain
since 9am
mm
Weather Cloud Vis
km
Sea
Height
m
Swell
Dir
 
Speed
knots
Gust
knots
hPa Trend Height
m
Period
s
Dir
30/11:30pm 21.8 CALM 0 0 1014.6 - 0.0 - - - - - - -
30/11:00pm 22.0 WSW 3 4 1014.6 - 0.0 - - - - - - -
30/10:30pm 22.5 W 3 4 1014.7 - 0.0 - - - - - - -
30/10:00pm 22.8 W 3 4 1014.6 - 0.0 - - - - - - -
30/09:30pm 23.2 WSW 3 4 1014.6 - 0.0 - - - - - - -
30/09:00pm 23.8 WSW 4 5 1014.5 - 0.0 - - - - - - -
30/08:30pm 24.0 WSW 4 6 1014.2 - 0.0 - - - - - - -
30/08:00pm 24.3 W 5 7 1013.9 - 0.0 - - - - - - -
30/07:30pm 24.8 WSW 7 9 1013.5 - 0.0 - - - - - - -
30/07:00pm 25.2 W 7 11 1013.3 - 0.0 - - - - - - -
30/06:30pm 25.9 W 8 11 1012.9 - 0.0 - - - - - - -
30/06:00pm 27.0 W 9 12 1012.6 - 0.0 - - - - - - -
30/05:30pm 28.0 W 10 13 1012.5 - 0.0 - - - - - - -
30/05:00pm 28.8 W 11 15 1012.3 - 0.0 - - - - - - -
30/04:30pm 29.5 W 10 14 1012.4 - 0.0 - - - - - - -
30/04:00pm 29.8 WNW 11 16 1012.3 - 0.0 - - - - - - -
30/03:30pm 30.3 W 12 16 1012.3 - 0.0 - - - - - - -
30/03:00pm 31.2 WNW 13 16 1012.5 - 0.0 - - - - - - -
30/02:30pm 31.9 SW 8 14 1012.8 - 0.0 - - - - - - -
30/02:00pm 33.0 SSW 5 11 1013.2 - 0.0 - - - - - - -
30/01:30pm 32.2 SE 4 6 1013.8 - 0.0 - - - - - - -
30/01:00pm 32.1 SSW 7 13 1014.4 - 0.0 - - - - - - -
30/12:30pm 30.9 NNW 3 6 1015.1 - 0.0 - - - - - - -
30/12:00pm 31.1 E 3 7 1015.7 - 0.0 - - - - - - -
30/11:30am 30.0 SW 4 6 1016.4 - 0.0 - - - - - - -
30/11:00am 28.7 WNW 4 7 1016.9 - 0.0 - - - - - - -
30/10:30am 28.5 NE 4 8 1017.3 - 0.0 - - - - - - -
30/10:00am 27.2 NNW 5 8 1017.5 - 0.0 - - - - - - -
30/09:30am 27.0 N 3 5 1017.5 - 0.0 - - - - - - -
30/09:00am 26.1 NNE 5 7 1017.4 - 0.0 - - - - - - -
30/08:30am 24.4 N 4 7 1017.3 - 0.0 - - - - - - -
30/08:00am 22.9 N 2 5 1017.1 - 0.0 - - - - - - -
30/07:30am 21.0 CALM 0 0 1016.8 - 0.0 - - - - - - -
30/07:00am 19.2 CALM 0 0 1016.4 - 0.0 - - - - - - -
30/06:30am 19.2 CALM 0 0 1015.9 - 0.0 - - - - - - -
30/06:00am 19.5 CALM 0 0 1015.4 - 0.0 - - - - - - -
30/05:30am 19.8 NE 3 4 1015.0 - 0.0 - - - - - - -
30/05:00am 19.8 N 1 4 1014.7 - 0.0 - - - - - - -
30/04:30am 20.5 CALM 0 0 1014.8 - 0.0 - - - - - - -
30/04:00am 20.9 CALM 0 0 1014.7 - 0.0 - - - - - - -
30/03:30am 21.1 CALM 0 0 1014.7 - 0.0 - Partly cloudy - - - - -
30/03:00am 21.8 CALM 0 0 1014.6 - 0.0 - Partly cloudy - - - - -
30/02:30am 22.2 CALM 0 2 1014.9 - 0.0 - Partly cloudy - - - - -
30/02:00am 22.1 NNE 2 4 1015.1 - 0.0 - Partly cloudy - - - - -
30/01:30am 22.5 NE 2 5 1015.5 - 0.0 - Partly cloudy - - - - -
30/01:00am 22.6 NE 3 5 1015.7 - 0.0 - Partly cloudy - - - - -
30/12:30am 22.4 NNW 1 5 1015.7 - 0.0 - Partly cloudy - - - - -
30/12:00am 21.9 NNE 4 8 1015.8 - 0.0 - Mostly clear - - - - -
 
Date/Time
EST
Temp

°C
Wind Pressure Rain
since 9am
mm
Weather Cloud Vis
km
Sea
Height
m
Swell
Dir
 
Speed
knots
Gust
knots
hPa Trend Height
m
Period
s
Dir
29/11:30pm 22.1 CALM 0 0 1015.1 - 0.0 - - - - - - -
29/11:00pm 22.5 CALM 0 0 1015.3 - 0.0 - - - - - - -
29/10:30pm 22.8 WSW 3 4 1015.3 - 0.0 - - - - - - -

Other Formats:

Comma delimited format used in spreadsheet applications
http://www.bom.gov.au/fwo/IDQ60701/IDQ60701.94268.axf

JavaScript Object Notation format (JSON) in row-major order
http://www.bom.gov.au/fwo/IDQ60701/IDQ60701.94268.json